Terminal Aerodrome Forecast
Issued by NWS Sterling, VA

Home | Current Version | Previous Version | Text Only | Print | Product List | Glossary On
Versions: 1 2 3 4 5 6 7 8 9 10 11 12 13 14 15 16 17 18 19 20 21 22 23 24 25 26 27 28 29 30 31
424
FTUS41 KLWX 042340
TAFIAD
TAF
KIAD 042340Z 0500/0606 08008KT P6SM -DZ FEW015 BKN025
     FM050200 08007KT P6SM -SHRA OVC015
     FM050500 07005KT P6SM -DZ OVC008
     FM051600 02007KT 5SM -SHRA OVC015
     FM060300 01005KT 3SM -SHRA BR OVC015=

USA.gov is the U.S. government's official web portal to all federal, state and local government web resources and services.